Time;durP1;ratioP1;P1;durP2;ratioP2;P2;SDS_P1;SDS_P2;PMS_P1;PMS_P2;Temp;Humidity;BMP_temperature;BMP_pressure;BME280_temperature;BME280_humidity;BME280_pressure;Samples;Min_cycle;Max_cycle;Signal;HPM_P1;HPM_P2
2024/01/07 00:01:04;;;;;;;2.80;2.60;;;8.70;99.20;;;;;;972479;144;27316;-79
2024/01/07 00:03:31;;;;;;;4.47;3.33;;;8.70;99.10;;;;;;971699;144;27399;-79
2024/01/07 00:05:57;;;;;;;2.60;2.40;;;8.70;99.00;;;;;;972565;144;27248;-79
2024/01/07 00:08:24;;;;;;;2.93;2.57;;;8.70;98.80;;;;;;972108;144;27355;-79
2024/01/07 00:10:50;;;;;;;3.17;2.73;;;8.70;98.70;;;;;;972527;144;27343;-79
2024/01/07 00:13:17;;;;;;;2.50;2.30;;;8.70;98.60;;;;;;969116;144;27490;-78
2024/01/07 00:15:44;;;;;;;2.30;2.13;;;8.60;98.60;;;;;;957408;145;27289;-79
2024/01/07 00:18:10;;;;;;;2.50;2.30;;;8.60;98.60;;;;;;954117;146;27378;-80
2024/01/07 00:20:37;;;;;;;4.90;2.50;;;8.60;98.50;;;;;;950730;146;27432;-78
2024/01/07 00:23:03;;;;;;;2.50;2.30;;;8.60;98.60;;;;;;955231;146;27427;-78
2024/01/07 00:25:30;;;;;;;2.70;2.47;;;8.60;98.60;;;;;;950180;145;27238;-78
2024/01/07 00:27:57;;;;;;;2.83;2.50;;;8.60;98.60;;;;;;952824;146;27433;-78
2024/01/07 00:30:23;;;;;;;2.53;2.33;;;8.60;98.50;;;;;;952503;145;27259;-79
2024/01/07 00:32:51;;;;;;;2.60;2.40;;;8.60;98.60;;;;;;952565;146;27352;-79
2024/01/07 00:35:16;;;;;;;2.43;2.23;;;8.60;98.70;;;;;;951838;146;27765;-79
2024/01/07 00:37:43;;;;;;;2.60;2.40;;;8.60;98.70;;;;;;931953;149;27266;-78
2024/01/07 00:40:09;;;;;;;2.60;2.40;;;8.50;98.80;;;;;;954578;145;27480;-78
2024/01/07 00:42:36;;;;;;;2.60;2.40;;;8.50;98.90;;;;;;952794;145;27382;-80
2024/01/07 00:45:03;;;;;;;3.43;2.93;;;8.60;98.90;;;;;;961871;145;27316;-80
2024/01/07 00:47:29;;;;;;;2.63;2.43;;;8.50;98.90;;;;;;960169;145;27307;-78
2024/01/07 00:49:56;;;;;;;2.67;2.47;;;8.50;98.90;;;;;;959893;145;27272;-80
2024/01/07 00:52:23;;;;;;;2.50;2.30;;;8.50;98.90;;;;;;961093;145;27373;-78
2024/01/07 00:54:49;;;;;;;3.00;2.63;;;8.50;98.90;;;;;;960639;145;27402;-82
2024/01/07 00:57:16;;;;;;;2.70;2.50;;;8.50;98.90;;;;;;959770;145;27328;-79
2024/01/07 00:59:42;;;;;;;3.00;2.80;;;8.50;98.90;;;;;;949489;146;27385;-78
2024/01/07 01:02:09;;;;;;;2.97;2.77;;;8.60;99.00;;;;;;949954;146;27271;-79
2024/01/07 01:04:35;;;;;;;2.73;2.53;;;8.60;99.00;;;;;;953306;146;27320;-83
2024/01/07 01:07:02;;;;;;;2.20;2.03;;;8.50;98.80;;;;;;951717;146;27418;-78
2024/01/07 01:09:29;;;;;;;3.33;2.60;;;8.50;98.80;;;;;;954033;146;27315;-79
2024/01/07 01:11:55;;;;;;;2.20;2.10;;;8.50;98.80;;;;;;951464;147;27383;-77
2024/01/07 01:14:22;;;;;;;2.70;2.50;;;8.50;98.80;;;;;;957098;144;27799;-82
2024/01/07 01:16:48;;;;;;;2.93;2.37;;;8.50;98.90;;;;;;969163;144;27319;-78
2024/01/07 01:19:15;;;;;;;2.90;2.67;;;8.50;99.00;;;;;;968786;144;27267;-78
2024/01/07 01:21:41;;;;;;;2.73;2.53;;;8.50;99.10;;;;;;971626;144;27367;-78
2024/01/07 01:24:08;;;;;;;2.57;2.37;;;8.50;99.10;;;;;;970925;144;27642;-83
2024/01/07 01:26:35;;;;;;;2.37;2.20;;;8.50;99.10;;;;;;970216;144;27424;-78
2024/01/07 01:29:01;;;;;;;2.10;1.90;;;8.50;99.20;;;;;;966923;144;27351;-78
2024/01/07 01:31:28;;;;;;;2.70;2.50;;;8.40;99.30;;;;;;969416;144;27318;-80
2024/01/07 01:33:54;;;;;;;2.40;2.20;;;8.40;99.40;;;;;;968270;144;27294;-78
2024/01/07 01:36:21;;;;;;;2.33;2.13;;;8.40;99.60;;;;;;972115;144;27318;-78
2024/01/07 01:38:48;;;;;;;2.57;2.30;;;8.30;99.60;;;;;;969762;144;27313;-78
2024/01/07 01:41:14;;;;;;;2.20;2.10;;;8.30;99.80;;;;;;967245;143;27622;-80
2024/01/07 01:43:41;;;;;;;2.67;2.47;;;8.20;99.70;;;;;;965491;144;27275;-86
2024/01/07 01:46:07;;;;;;;2.50;2.30;;;8.20;99.80;;;;;;967918;144;27327;-82
2024/01/07 01:48:34;;;;;;;2.37;2.23;;;8.20;99.80;;;;;;968702;144;27305;-85
2024/01/07 01:51:00;;;;;;;3.03;2.00;;;8.10;99.90;;;;;;968943;144;27368;-85
2024/01/07 01:53:27;;;;;;;1.93;1.83;;;8.10;99.90;;;;;;970326;143;27390;-85
2024/01/07 01:55:54;;;;;;;2.30;2.10;;;8.10;99.90;;;;;;971457;144;27261;-85
2024/01/07 01:58:20;;;;;;;1.90;1.80;;;8.00;99.90;;;;;;923724;151;27359;-87
2024/01/07 02:00:47;;;;;;;2.17;1.97;;;8.00;99.90;;;;;;968887;144;28256;-85
2024/01/07 02:03:13;;;;;;;2.30;2.10;;;7.90;99.90;;;;;;971643;144;27258;-86
2024/01/07 02:05:40;;;;;;;2.50;2.30;;;7.90;99.90;;;;;;972963;144;27340;-86
2024/01/07 02:08:07;;;;;;;2.10;1.90;;;7.90;99.90;;;;;;968158;144;27332;-82
2024/01/07 02:10:36;;;;;;;2.53;2.33;;;7.80;99.90;;;;;;972814;144;27301;-86
2024/01/07 02:13:00;;;;;;;2.20;2.00;;;7.80;99.90;;;;;;968508;144;27275;-87
2024/01/07 02:15:26;;;;;;;2.20;2.00;;;7.80;99.90;;;;;;971046;143;27405;-84
2024/01/07 02:17:53;;;;;;;2.43;2.23;;;7.80;99.90;;;;;;970714;144;27263;-83
2024/01/07 02:20:20;;;;;;;2.67;2.40;;;7.80;99.90;;;;;;968315;143;27412;-86
2024/01/07 02:22:46;;;;;;;2.77;2.57;;;7.80;99.90;;;;;;970330;144;27260;-86
2024/01/07 02:25:13;;;;;;;2.50;2.30;;;7.80;99.90;;;;;;969404;144;27278;-86
2024/01/07 02:27:39;;;;;;;2.37;2.17;;;7.80;99.90;;;;;;971494;144;27283;-85
2024/01/07 02:30:06;;;;;;;2.53;2.33;;;7.80;99.90;;;;;;970425;144;27381;-82
2024/01/07 02:32:34;;;;;;;2.83;2.63;;;7.80;99.90;;;;;;969376;143;27429;-87
2024/01/07 02:34:59;;;;;;;9.30;2.57;;;7.70;99.90;;;;;;971322;143;27274;-86
2024/01/07 02:37:26;;;;;;;2.70;2.30;;;7.70;99.90;;;;;;971869;143;27259;-85
2024/01/07 02:39:52;;;;;;;2.93;2.70;;;7.80;99.90;;;;;;969826;143;27387;-83
2024/01/07 02:42:19;;;;;;;2.50;2.30;;;7.70;99.90;;;;;;967932;143;27431;-85
2024/01/07 02:44:45;;;;;;;3.10;2.80;;;7.70;99.90;;;;;;970104;144;27260;-86
2024/01/07 02:47:12;;;;;;;2.80;2.60;;;7.70;99.90;;;;;;963365;144;27317;-86
2024/01/07 02:49:39;;;;;;;2.70;2.50;;;7.80;99.90;;;;;;974650;143;27224;-85
2024/01/07 02:52:05;;;;;;;2.73;2.53;;;7.70;99.90;;;;;;969768;144;27403;-87
2024/01/07 02:54:32;;;;;;;2.90;2.70;;;7.70;99.90;;;;;;969350;144;28406;-86
2024/01/07 02:56:58;;;;;;;3.20;2.90;;;7.70;99.90;;;;;;929662;150;27463;-85
2024/01/07 02:59:25;;;;;;;2.90;2.70;;;7.70;99.90;;;;;;932030;149;27323;-85
2024/01/07 03:01:52;;;;;;;2.73;2.53;;;7.70;99.90;;;;;;940543;148;27364;-82
2024/01/07 03:04:18;;;;;;;2.87;2.67;;;7.70;99.90;;;;;;963070;143;27772;-86
2024/01/07 03:06:45;;;;;;;3.10;2.90;;;7.70;99.90;;;;;;969297;144;27287;-85
2024/01/07 03:09:11;;;;;;;3.03;2.73;;;7.70;99.90;;;;;;971140;144;27311;-87
2024/01/07 03:11:43;;;;;;;2.40;2.20;;;7.70;99.90;;;;;;969582;144;27286;-83
2024/01/07 03:14:10;;;;;;;3.20;2.83;;;7.70;99.90;;;;;;967677;144;27300;-86
2024/01/07 03:16:37;;;;;;;2.87;2.67;;;7.70;99.90;;;;;;952222;144;27289;-85
2024/01/07 03:19:04;;;;;;;2.87;2.57;;;7.80;99.90;;;;;;949672;149;27355;-84
2024/01/07 03:21:30;;;;;;;3.33;3.03;;;7.70;99.90;;;;;;949598;149;27273;-84
2024/01/07 03:23:56;;;;;;;3.23;2.90;;;7.70;99.90;;;;;;950326;151;27327;-86
2024/01/07 03:26:23;;;;;;;2.87;2.67;;;7.70;99.90;;;;;;950484;151;27775;-85
2024/01/07 03:28:50;;;;;;;3.33;3.03;;;7.70;99.90;;;;;;950018;148;27390;-86
2024/01/07 03:31:16;;;;;;;3.07;2.83;;;7.70;99.90;;;;;;950242;151;27338;-84
2024/01/07 03:33:43;;;;;;;3.93;3.13;;;7.70;99.90;;;;;;950723;148;27329;-87
2024/01/07 03:36:12;;;;;;;4.47;3.10;;;7.70;99.90;;;;;;950371;151;27262;-87
2024/01/07 03:38:39;;;;;;;4.57;3.20;;;7.70;99.90;;;;;;950649;150;27396;-87
2024/01/07 03:41:05;;;;;;;3.50;3.20;;;7.70;99.90;;;;;;950011;150;27325;-84
2024/01/07 03:43:32;;;;;;;4.13;3.33;;;7.70;99.90;;;;;;950440;151;27317;-86
2024/01/07 03:45:58;;;;;;;4.67;3.40;;;7.70;99.90;;;;;;950035;151;27351;-87
2024/01/07 03:48:25;;;;;;;3.23;2.93;;;7.70;99.90;;;;;;949856;149;27390;-87
2024/01/07 03:50:51;;;;;;;3.90;3.60;;;7.70;99.90;;;;;;950298;148;27351;-85
2024/01/07 03:53:18;;;;;;;3.63;3.33;;;7.70;99.90;;;;;;950358;151;27321;-86
2024/01/07 03:55:45;;;;;;;3.83;3.53;;;7.70;99.90;;;;;;950751;150;28677;-87
2024/01/07 03:58:11;;;;;;;3.63;3.33;;;7.70;99.90;;;;;;950658;149;27355;-85
2024/01/07 04:00:38;;;;;;;4.20;3.70;;;7.70;99.90;;;;;;950278;151;27274;-85
2024/01/07 04:03:04;;;;;;;4.33;3.83;;;7.70;99.90;;;;;;950621;151;27335;-83
2024/01/07 04:05:33;;;;;;;3.33;3.03;;;7.70;99.90;;;;;;950321;151;27414;-87
2024/01/07 04:07:58;;;;;;;4.00;3.60;;;7.70;99.90;;;;;;950443;149;27254;-85
2024/01/07 04:10:24;;;;;;;4.03;3.40;;;7.70;99.90;;;;;;950240;151;27298;-86
2024/01/07 04:12:51;;;;;;;5.00;4.43;;;7.70;99.90;;;;;;950119;151;27262;-82
2024/01/07 04:15:17;;;;;;;4.33;3.93;;;7.70;99.90;;;;;;950643;143;27329;-86
2024/01/07 04:17:44;;;;;;;4.93;4.10;;;7.70;99.90;;;;;;970408;144;27387;-85
2024/01/07 04:20:10;;;;;;;6.13;4.60;;;7.70;99.90;;;;;;970569;144;27330;-85
2024/01/07 04:22:37;;;;;;;4.50;4.00;;;7.70;99.90;;;;;;975432;144;27307;-82
2024/01/07 04:25:05;;;;;;;4.57;4.17;;;7.60;99.90;;;;;;971014;144;27827;-79
2024/01/07 04:27:30;;;;;;;7.47;4.83;;;7.60;99.90;;;;;;969795;144;27274;-78
2024/01/07 04:29:57;;;;;;;5.13;4.63;;;7.70;99.90;;;;;;971861;144;27236;-79
2024/01/07 04:32:23;;;;;;;4.77;4.23;;;7.60;99.90;;;;;;973453;144;27282;-80
2024/01/07 04:34:50;;;;;;;4.90;4.27;;;7.60;99.90;;;;;;973224;144;27330;-79
2024/01/07 04:37:17;;;;;;;4.83;4.33;;;7.70;99.90;;;;;;973623;144;27387;-79
2024/01/07 04:39:43;;;;;;;6.80;5.23;;;7.60;99.90;;;;;;972060;144;27230;-77
2024/01/07 04:42:10;;;;;;;4.60;4.20;;;7.70;99.90;;;;;;971660;144;27804;-79
2024/01/07 04:44:36;;;;;;;5.43;4.50;;;7.70;99.90;;;;;;937771;150;27437;-81
2024/01/07 04:47:03;;;;;;;5.83;5.23;;;7.70;99.90;;;;;;934759;151;27338;-78
2024/01/07 04:49:29;;;;;;;5.63;5.07;;;7.70;99.90;;;;;;949072;148;27434;-79
2024/01/07 04:51:56;;;;;;;5.93;5.37;;;7.70;99.90;;;;;;949927;148;27324;-79
2024/01/07 04:54:23;;;;;;;6.33;5.03;;;7.70;99.90;;;;;;950321;148;27303;-78
2024/01/07 04:56:49;;;;;;;5.80;5.27;;;7.70;99.90;;;;;;934888;151;27452;-78
2024/01/07 04:59:16;;;;;;;6.07;5.33;;;7.70;99.90;;;;;;935635;151;27766;-79
2024/01/07 05:01:42;;;;;;;6.20;5.60;;;7.70;99.90;;;;;;972203;144;27360;-78
2024/01/07 05:04:09;;;;;;;6.20;5.43;;;7.70;99.90;;;;;;973659;144;27243;-79
2024/01/07 05:06:36;;;;;;;6.50;5.87;;;7.70;99.90;;;;;;971144;144;27341;-78
2024/01/07 05:09:02;;;;;;;6.30;5.60;;;7.70;99.90;;;;;;974419;144;27705;-78
2024/01/07 05:11:29;;;;;;;6.57;5.77;;;7.70;99.90;;;;;;935147;151;27854;-79
2024/01/07 05:13:55;;;;;;;6.27;5.67;;;7.70;99.90;;;;;;973243;144;27360;-79
2024/01/07 05:16:22;;;;;;;7.50;6.43;;;7.80;99.90;;;;;;934460;150;27507;-78
2024/01/07 05:18:49;;;;;;;6.93;6.23;;;7.80;99.90;;;;;;931684;151;28127;-80
2024/01/07 05:21:16;;;;;;;6.60;6.00;;;7.80;99.90;;;;;;947460;149;27458;-80
2024/01/07 05:23:42;;;;;;;7.17;5.70;;;7.80;99.90;;;;;;947117;148;27353;-78
2024/01/07 05:26:08;;;;;;;6.37;5.77;;;7.80;99.90;;;;;;957544;145;27667;-83
2024/01/07 05:28:35;;;;;;;6.83;6.13;;;7.80;99.90;;;;;;971161;144;27884;-80
2024/01/07 05:31:01;;;;;;;6.93;6.00;;;7.80;99.90;;;;;;971039;144;27345;-78
2024/01/07 05:33:28;;;;;;;7.10;6.17;;;7.80;99.90;;;;;;973231;144;27318;-78
2024/01/07 05:35:55;;;;;;;8.07;7.17;;;7.80;99.90;;;;;;974866;144;27398;-79
2024/01/07 05:38:21;;;;;;;8.60;6.77;;;7.80;99.90;;;;;;973442;144;27310;-79
2024/01/07 05:40:48;;;;;;;7.90;6.73;;;7.80;99.90;;;;;;972712;144;27806;-78
2024/01/07 05:43:14;;;;;;;8.37;5.83;;;7.80;99.90;;;;;;975399;144;27247;-79
2024/01/07 05:45:41;;;;;;;6.83;6.10;;;7.80;99.90;;;;;;972571;144;27294;-82
2024/01/07 05:48:08;;;;;;;7.57;6.50;;;7.80;99.90;;;;;;973151;144;27398;-79
2024/01/07 05:50:34;;;;;;;7.83;7.03;;;7.80;99.90;;;;;;971162;144;27302;-78
2024/01/07 05:53:01;;;;;;;7.57;6.37;;;7.80;99.90;;;;;;971070;144;27279;-79
2024/01/07 05:55:27;;;;;;;8.23;6.63;;;7.80;99.90;;;;;;971668;144;27362;-79
2024/01/07 05:57:54;;;;;;;8.57;6.83;;;7.80;99.90;;;;;;971738;144;27330;-82
2024/01/07 06:00:20;;;;;;;6.87;6.20;;;7.80;99.90;;;;;;975037;144;27414;-78
2024/01/07 06:02:47;;;;;;;7.07;6.37;;;7.80;99.90;;;;;;972035;144;27295;-78
2024/01/07 06:05:14;;;;;;;7.07;6.37;;;7.80;99.90;;;;;;935390;150;27358;-78
2024/01/07 06:07:40;;;;;;;7.10;6.23;;;7.70;99.90;;;;;;940131;150;27754;-81
2024/01/07 06:10:07;;;;;;;6.93;6.20;;;7.70;99.90;;;;;;975368;144;27361;-78
2024/01/07 06:12:33;;;;;;;7.50;6.37;;;7.70;99.90;;;;;;973002;144;27306;-79
2024/01/07 06:15:00;;;;;;;7.93;6.13;;;7.70;99.90;;;;;;971799;144;27249;-78
2024/01/07 06:17:27;;;;;;;6.87;6.17;;;7.70;99.90;;;;;;969981;143;27336;-78
2024/01/07 06:19:53;;;;;;;7.97;6.23;;;7.60;99.90;;;;;;974262;144;27317;-78
2024/01/07 06:22:20;;;;;;;5.90;5.30;;;7.60;99.90;;;;;;971716;144;28768;-78
2024/01/07 06:24:46;;;;;;;7.10;6.20;;;7.60;99.90;;;;;;974819;144;27317;-78
2024/01/07 06:27:13;;;;;;;7.23;5.60;;;7.50;99.90;;;;;;970347;144;27260;-81
2024/01/07 06:29:39;;;;;;;7.17;6.27;;;7.50;99.90;;;;;;973224;144;27393;-82
2024/01/07 06:32:06;;;;;;;7.40;6.03;;;7.50;99.90;;;;;;973050;144;27430;-79
2024/01/07 06:34:33;;;;;;;7.20;5.73;;;7.40;99.90;;;;;;973325;144;27219;-78
2024/01/07 06:36:59;;;;;;;6.33;5.73;;;7.40;99.90;;;;;;972074;144;27282;-79
2024/01/07 06:39:29;;;;;;;7.23;6.20;;;7.40;99.90;;;;;;974641;144;27361;-80
2024/01/07 06:41:52;;;;;;;7.67;6.70;;;7.30;99.90;;;;;;971556;144;27342;-79
2024/01/07 06:44:19;;;;;;;7.00;5.80;;;7.30;99.80;;;;;;973393;144;27279;-87
2024/01/07 06:46:46;;;;;;;6.33;5.47;;;7.20;99.80;;;;;;973520;144;27316;-87
2024/01/07 06:49:12;;;;;;;6.23;5.40;;;7.20;99.90;;;;;;972017;144;27375;-85
2024/01/07 06:51:39;;;;;;;6.57;5.80;;;7.10;99.80;;;;;;972545;144;27329;-87
2024/01/07 06:54:05;;;;;;;7.20;6.27;;;7.10;99.80;;;;;;971617;144;27342;-87
2024/01/07 06:56:32;;;;;;;6.23;5.60;;;7.10;99.80;;;;;;970621;144;27251;-87
2024/01/07 06:58:58;;;;;;;6.17;5.57;;;7.00;99.50;;;;;;973205;144;27283;-86
2024/01/07 07:01:25;;;;;;;6.40;5.73;;;7.00;99.40;;;;;;972222;144;27408;-82
2024/01/07 07:03:52;;;;;;;6.33;5.37;;;7.00;99.10;;;;;;970270;144;27317;-86
2024/01/07 07:06:18;;;;;;;7.30;6.00;;;6.90;98.80;;;;;;973074;144;27248;-86
2024/01/07 07:08:45;;;;;;;7.37;5.77;;;6.90;98.70;;;;;;970667;144;27252;-86
2024/01/07 07:11:11;;;;;;;5.00;4.57;;;6.90;98.80;;;;;;972748;144;27840;-84
2024/01/07 07:13:38;;;;;;;5.80;5.23;;;6.80;98.70;;;;;;970240;144;27330;-87
2024/01/07 07:16:05;;;;;;;7.10;5.50;;;6.80;98.70;;;;;;971035;144;27371;-87
2024/01/07 07:18:31;;;;;;;6.37;5.57;;;6.80;98.70;;;;;;973459;144;27249;-87
2024/01/07 07:20:58;;;;;;;5.57;4.87;;;6.80;98.80;;;;;;972137;144;27383;-85
2024/01/07 07:23:24;;;;;;;6.40;5.20;;;6.80;98.70;;;;;;969978;144;27388;-81
2024/01/07 07:25:51;;;;;;;6.40;5.13;;;6.80;98.40;;;;;;970049;144;27434;-86
2024/01/07 07:28:17;;;;;;;5.80;5.17;;;6.70;98.30;;;;;;972333;144;27349;-85
2024/01/07 07:30:44;;;;;;;7.33;5.80;;;6.70;98.30;;;;;;971857;144;27243;-85
2024/01/07 07:33:11;;;;;;;7.20;5.67;;;6.70;98.00;;;;;;972818;144;27383;-84
2024/01/07 07:35:39;;;;;;;5.83;5.20;;;6.70;98.10;;;;;;972758;144;27322;-79
2024/01/07 07:38:04;;;;;;;7.57;5.93;;;6.70;98.10;;;;;;972075;144;27269;-79
2024/01/07 07:40:30;;;;;;;5.80;5.27;;;6.70;98.30;;;;;;968781;144;27274;-79
2024/01/07 07:42:57;;;;;;;6.40;5.63;;;6.60;98.30;;;;;;972104;144;27228;-79
2024/01/07 07:45:24;;;;;;;6.73;5.37;;;6.60;98.30;;;;;;972352;144;27342;-79
2024/01/07 07:47:50;;;;;;;7.23;6.27;;;6.60;98.40;;;;;;974143;144;27424;-79
2024/01/07 07:50:17;;;;;;;5.70;5.07;;;6.60;98.50;;;;;;970771;144;27280;-79
2024/01/07 07:52:46;;;;;;;5.97;5.37;;;6.60;98.60;;;;;;971347;144;27294;-79
2024/01/07 07:55:13;;;;;;;5.90;5.33;;;6.60;98.40;;;;;;972272;144;27349;-80
2024/01/07 07:57:39;;;;;;;6.63;5.47;;;6.60;98.20;;;;;;974731;144;27729;-79
2024/01/07 08:00:06;;;;;;;6.83;5.50;;;6.60;98.00;;;;;;970684;144;27682;-79
2024/01/07 08:02:32;;;;;;;6.07;5.43;;;6.60;97.90;;;;;;973063;144;27306;-81
2024/01/07 08:04:59;;;;;;;5.67;4.93;;;6.60;97.70;;;;;;972590;144;27325;-82
2024/01/07 08:07:26;;;;;;;6.33;5.73;;;6.60;97.50;;;;;;971832;144;27414;-78
2024/01/07 08:09:53;;;;;;;6.97;5.57;;;6.60;97.50;;;;;;972899;144;27296;-78
2024/01/07 08:12:19;;;;;;;6.57;5.60;;;6.60;97.50;;;;;;973110;144;27239;-78
2024/01/07 08:14:45;;;;;;;7.17;6.47;;;6.60;97.40;;;;;;972796;144;27364;-79
2024/01/07 08:17:12;;;;;;;7.70;6.10;;;6.50;97.20;;;;;;972265;144;27358;-79
2024/01/07 08:19:39;;;;;;;6.13;5.50;;;6.50;97.00;;;;;;972975;143;27329;-78
2024/01/07 08:22:05;;;;;;;5.83;5.33;;;6.50;96.70;;;;;;972469;143;27231;-78
2024/01/07 08:24:32;;;;;;;5.07;4.63;;;6.50;96.50;;;;;;969755;143;28187;-79
2024/01/07 08:26:58;;;;;;;5.80;5.20;;;6.50;96.50;;;;;;967356;144;27319;-77
2024/01/07 08:29:25;;;;;;;5.53;4.93;;;6.40;96.40;;;;;;972544;143;28282;-78
2024/01/07 08:31:52;;;;;;;5.37;4.87;;;6.40;96.40;;;;;;967059;144;27240;-78
2024/01/07 08:34:18;;;;;;;5.87;5.23;;;6.40;96.30;;;;;;968804;144;27287;-78
2024/01/07 08:36:45;;;;;;;6.27;5.67;;;6.40;96.10;;;;;;970448;143;27352;-79
2024/01/07 08:39:11;;;;;;;5.63;5.13;;;6.40;96.10;;;;;;972422;143;27748;-77
2024/01/07 08:41:38;;;;;;;5.67;5.10;;;6.30;96.00;;;;;;972918;144;27283;-78
2024/01/07 08:44:04;;;;;;;4.77;4.37;;;6.30;96.00;;;;;;973864;144;27410;-83
2024/01/07 08:46:31;;;;;;;5.67;5.07;;;6.30;96.00;;;;;;971212;144;27285;-83
2024/01/07 08:48:58;;;;;;;5.43;4.93;;;6.30;95.90;;;;;;973568;143;27427;-88
2024/01/07 08:51:24;;;;;;;5.27;4.77;;;6.30;95.90;;;;;;973529;144;27307;-84
2024/01/07 08:53:51;;;;;;;5.80;5.23;;;6.30;95.90;;;;;;972701;144;27790;-87
2024/01/07 08:56:18;;;;;;;5.37;4.87;;;6.30;95.90;;;;;;972879;144;27257;-86
2024/01/07 08:58:44;;;;;;;5.33;4.83;;;6.30;96.00;;;;;;973636;144;27322;-82
2024/01/07 09:01:10;;;;;;;5.63;5.10;;;6.30;96.00;;;;;;972312;144;28248;-86
2024/01/07 09:03:37;;;;;;;4.87;4.47;;;6.30;95.90;;;;;;974518;144;27268;-85
2024/01/07 09:06:04;;;;;;;5.23;4.73;;;6.30;95.70;;;;;;971303;144;27329;-87
2024/01/07 09:08:30;;;;;;;5.27;4.80;;;6.30;95.70;;;;;;973294;144;27354;-87
2024/01/07 09:10:57;;;;;;;5.13;4.73;;;6.30;95.40;;;;;;972792;144;27249;-87
2024/01/07 09:13:24;;;;;;;4.50;4.13;;;6.30;95.20;;;;;;973303;144;27386;-88
2024/01/07 09:15:50;;;;;;;5.17;4.77;;;6.30;95.10;;;;;;973254;143;27222;-86
2024/01/07 09:18:17;;;;;;;5.10;4.60;;;6.30;95.20;;;;;;970299;144;27388;-80
2024/01/07 09:20:43;;;;;;;4.53;4.13;;;6.30;95.20;;;;;;988951;142;27363;-87
2024/01/07 09:23:10;;;;;;;5.07;4.57;;;6.30;95.20;;;;;;980824;142;27281;-88
2024/01/07 09:25:36;;;;;;;5.27;4.70;;;6.30;95.10;;;;;;974364;144;27681;-86
2024/01/07 09:28:04;;;;;;;5.67;5.13;;;6.30;95.00;;;;;;973829;144;27322;-83
2024/01/07 09:30:29;;;;;;;5.10;4.60;;;6.40;95.10;;;;;;971680;144;27415;-88
2024/01/07 09:32:56;;;;;;;5.23;4.83;;;6.40;95.00;;;;;;972391;144;27358;-89
2024/01/07 09:35:23;;;;;;;5.10;4.60;;;6.40;94.80;;;;;;971262;144;28609;-87
2024/01/07 09:37:49;;;;;;;6.17;5.57;;;6.40;94.60;;;;;;934928;151;27415;-85
2024/01/07 09:40:19;;;;;;;5.00;4.50;;;6.40;94.60;;;;;;928247;150;27358;-85
2024/01/07 09:42:45;;;;;;;5.67;5.17;;;6.40;94.50;;;;;;951075;148;27367;-86
2024/01/07 09:45:12;;;;;;;5.80;5.20;;;6.50;94.50;;;;;;953151;148;27281;-87
2024/01/07 09:47:40;;;;;;;5.50;5.00;;;6.50;94.40;;;;;;935666;151;27310;-83
2024/01/07 09:50:06;;;;;;;5.80;5.23;;;6.50;94.30;;;;;;935832;150;27328;-87
2024/01/07 09:52:32;;;;;;;5.93;5.33;;;6.50;94.20;;;;;;951784;148;27435;-88
2024/01/07 09:54:59;;;;;;;5.27;4.77;;;6.60;94.10;;;;;;932798;150;27380;-88
2024/01/07 09:57:25;;;;;;;5.43;4.93;;;6.60;93.40;;;;;;972663;144;27374;-87
2024/01/07 09:59:51;;;;;;;6.00;5.40;;;6.60;93.20;;;;;;972722;144;27267;-84
2024/01/07 10:02:18;;;;;;;5.63;4.97;;;6.60;93.10;;;;;;970196;144;27875;-84
2024/01/07 10:04:47;;;;;;;6.83;5.23;;;6.60;92.90;;;;;;975039;143;27205;-87
2024/01/07 10:07:11;;;;;;;5.13;4.63;;;6.60;92.80;;;;;;974464;144;27286;-88
2024/01/07 10:09:38;;;;;;;5.53;5.00;;;6.60;92.70;;;;;;975426;144;27325;-86
2024/01/07 10:12:04;;;;;;;5.57;5.07;;;6.50;92.60;;;;;;975830;144;27427;-81
2024/01/07 10:14:31;;;;;;;5.47;4.93;;;6.50;92.40;;;;;;975612;144;27298;-88
2024/01/07 10:16:58;;;;;;;5.77;5.23;;;6.50;92.50;;;;;;974265;144;27255;-87
2024/01/07 10:19:24;;;;;;;5.97;5.37;;;6.50;92.10;;;;;;974376;144;27276;-88
2024/01/07 10:22:00;;;;;;;5.73;5.13;;;6.50;92.30;;;;;;972508;144;27262;-85
2024/01/07 10:24:26;;;;;;;6.90;5.77;;;6.50;92.30;;;;;;971780;144;27299;-89
2024/01/07 10:26:53;;;;;;;6.33;5.40;;;6.50;92.10;;;;;;970220;144;27324;-86
2024/01/07 10:29:20;;;;;;;6.37;5.77;;;6.50;92.10;;;;;;969542;144;27286;-88
2024/01/07 10:31:46;;;;;;;6.37;5.27;;;6.50;92.00;;;;;;972918;144;27387;-86
2024/01/07 10:34:13;;;;;;;5.67;5.13;;;6.40;91.90;;;;;;970884;144;27322;-82
2024/01/07 10:36:39;;;;;;;5.57;5.00;;;6.40;91.90;;;;;;972416;144;27407;-86
2024/01/07 10:39:06;;;;;;;6.23;5.40;;;6.40;91.90;;;;;;972231;144;27426;-88
2024/01/07 10:41:33;;;;;;;6.50;5.90;;;6.40;91.70;;;;;;972213;144;27210;-87
2024/01/07 10:43:59;;;;;;;5.77;5.17;;;6.40;91.60;;;;;;975284;144;27311;-81
2024/01/07 10:46:26;;;;;;;5.80;5.30;;;6.40;91.60;;;;;;972663;144;27323;-87
2024/01/07 10:48:55;;;;;;;6.97;6.10;;;6.40;91.60;;;;;;974519;144;27266;-88
2024/01/07 10:51:22;;;;;;;6.10;5.50;;;6.40;91.40;;;;;;969973;144;27301;-87
2024/01/07 10:53:54;;;;;;;6.27;5.50;;;6.40;91.40;;;;;;972799;144;27302;-82
2024/01/07 10:56:20;;;;;;;5.70;5.10;;;6.40;91.30;;;;;;972406;144;27300;-89
2024/01/07 10:58:47;;;;;;;5.73;5.20;;;6.40;91.30;;;;;;969679;144;27206;-88
2024/01/07 11:01:14;;;;;;;6.90;5.20;;;6.40;91.10;;;;;;971293;144;27277;-87
2024/01/07 11:03:52;;;;;;;6.20;5.50;;;6.40;91.00;;;;;;971381;144;27371;-84
2024/01/07 11:06:52;;;;;;;5.67;5.17;;;6.40;90.90;;;;;;974481;144;27324;-78
2024/01/07 11:09:23;;;;;;;5.97;5.37;;;6.40;91.10;;;;;;971705;144;27339;-79
2024/01/07 11:11:48;;;;;;;6.30;5.70;;;6.30;91.10;;;;;;972685;144;27455;-78
2024/01/07 11:14:40;;;;;;;6.70;5.47;;;6.30;91.00;;;;;;972434;144;27255;-79
2024/01/07 11:17:06;;;;;;;5.20;4.70;;;6.30;90.80;;;;;;970963;144;27425;-80
2024/01/07 11:19:33;;;;;;;5.53;5.00;;;6.30;90.80;;;;;;972413;144;27338;-79
2024/01/07 11:22:22;;;;;;;5.80;5.20;;;6.30;90.80;;;;;;953953;147;27786;-79
2024/01/07 11:24:48;;;;;;;5.30;4.80;;;6.30;91.10;;;;;;947119;149;27442;-87
2024/01/07 11:27:14;;;;;;;5.30;4.80;;;6.30;90.90;;;;;;950038;148;27287;-87
2024/01/07 11:29:41;;;;;;;4.80;4.30;;;6.30;90.80;;;;;;949859;148;27291;-86
2024/01/07 11:32:08;;;;;;;6.53;5.90;;;6.30;90.70;;;;;;972260;144;27291;-88
2024/01/07 11:34:46;;;;;;;5.53;4.47;;;6.30;90.70;;;;;;971126;144;27338;-86
2024/01/07 11:37:13;;;;;;;6.57;4.97;;;6.30;90.60;;;;;;972401;144;27418;-85
2024/01/07 11:39:42;;;;;;;6.03;5.00;;;6.20;90.40;;;;;;971032;144;27278;-85
2024/01/07 11:42:08;;;;;;;5.97;4.80;;;6.20;90.30;;;;;;970727;144;27426;-88
2024/01/07 11:44:37;;;;;;;6.20;5.10;;;6.20;90.40;;;;;;973060;144;27391;-87
2024/01/07 11:47:02;;;;;;;5.57;5.07;;;6.20;90.10;;;;;;970646;144;27279;-85
2024/01/07 11:49:28;;;;;;;5.50;5.00;;;6.20;90.10;;;;;;974262;144;27370;-84
2024/01/07 11:51:55;;;;;;;6.40;5.13;;;6.20;90.00;;;;;;971979;144;27345;-87
2024/01/07 11:54:21;;;;;;;4.70;4.30;;;6.20;90.00;;;;;;972884;144;27311;-88
2024/01/07 11:56:48;;;;;;;6.37;5.67;;;6.20;90.00;;;;;;970490;144;27249;-87
2024/01/07 11:59:14;;;;;;;6.13;5.40;;;6.20;89.40;;;;;;971839;144;27279;-86
2024/01/07 12:01:41;;;;;;;5.10;4.67;;;6.20;89.10;;;;;;973591;144;27824;-87
2024/01/07 12:04:09;;;;;;;6.83;5.23;;;6.20;88.40;;;;;;973791;144;27696;-89
2024/01/07 12:06:34;;;;;;;6.87;5.07;;;6.20;87.90;;;;;;976493;144;27271;-88
2024/01/07 12:09:01;;;;;;;6.80;5.13;;;6.20;87.90;;;;;;972710;144;27317;-87
2024/01/07 12:11:27;;;;;;;6.20;4.93;;;6.10;87.50;;;;;;970853;144;27411;-83
2024/01/07 12:13:54;;;;;;;6.20;5.60;;;6.10;87.40;;;;;;973323;144;27854;-87
2024/01/07 12:16:21;;;;;;;7.13;5.57;;;6.00;87.30;;;;;;972184;144;27310;-79
2024/01/07 12:18:47;;;;;;;6.47;5.50;;;6.00;87.10;;;;;;970409;144;27741;-82
2024/01/07 12:21:14;;;;;;;6.33;5.73;;;6.00;86.90;;;;;;971450;143;27361;-80
2024/01/07 12:23:40;;;;;;;6.90;4.77;;;5.90;87.10;;;;;;972497;143;27339;-79
2024/01/07 12:26:10;;;;;;;5.77;5.03;;;5.90;87.40;;;;;;970265;144;27341;-78
2024/01/07 12:28:36;;;;;;;6.17;5.23;;;5.90;87.70;;;;;;971330;144;27259;-79
2024/01/07 12:31:03;;;;;;;6.07;5.20;;;5.90;88.00;;;;;;972018;144;27789;-80
2024/01/07 12:33:31;;;;;;;6.70;5.20;;;5.90;87.80;;;;;;972801;144;27945;-78
2024/01/07 12:35:56;;;;;;;7.57;5.33;;;5.90;87.70;;;;;;933476;151;27338;-88
2024/01/07 12:38:25;;;;;;;5.87;5.30;;;5.90;87.70;;;;;;936171;151;27538;-87
2024/01/07 12:40:52;;;;;;;5.87;4.90;;;5.90;87.40;;;;;;945423;149;27324;-85
2024/01/07 12:43:19;;;;;;;5.90;5.30;;;5.90;86.90;;;;;;926619;152;27343;-87
2024/01/07 12:45:46;;;;;;;6.27;5.60;;;5.90;86.80;;;;;;950635;148;27327;-86
2024/01/07 12:48:12;;;;;;;6.10;5.43;;;5.90;86.10;;;;;;933113;151;27344;-88
2024/01/07 12:50:38;;;;;;;7.53;5.33;;;5.90;86.40;;;;;;937895;151;27299;-87
2024/01/07 12:53:05;;;;;;;6.43;5.47;;;5.90;86.60;;;;;;947096;149;27361;-84
2024/01/07 12:55:31;;;;;;;5.17;4.67;;;5.90;86.70;;;;;;953636;147;27329;-87